Time;durP1;ratioP1;P1;durP2;ratioP2;P2;SDS_P1;SDS_P2;PMS_P1;PMS_P2;Temp;Humidity;BMP_temperature;BMP_pressure;BME280_temperature;BME280_humidity;BME280_pressure;Samples;Min_cycle;Max_cycle;Signal;HPM_P1;HPM_P2
2023/05/23 00:01:06;;;;;;;13.90;8.18;;;;;;;;;;4992660;28;20035;-77
2023/05/23 00:03:31;;;;;;;10.90;7.50;;;;;;;;;;4982378;28;20054;-77
2023/05/23 00:05:57;;;;;;;10.55;7.47;;;;;;;;;;4987666;28;20436;-77
2023/05/23 00:08:23;;;;;;;12.88;7.97;;;;;;;;;;4982855;28;20042;-77
2023/05/23 00:10:48;;;;;;;10.02;7.53;;;;;;;;;;4987477;28;20031;-77
2023/05/23 00:13:13;;;;;;;10.27;7.63;;;;;;;;;;4984021;28;20103;-77
2023/05/23 00:15:42;;;;;;;9.75;7.93;;;;;;;;;;4982777;28;20429;-77
2023/05/23 00:18:09;;;;;;;10.50;7.47;;;;;;;;;;4989648;28;20066;-77
2023/05/23 00:20:36;;;;;;;11.15;7.80;;;;;;;;;;4984688;28;20038;-77
2023/05/23 00:23:02;;;;;;;10.82;7.47;;;;;;;;;;4975812;28;20041;-77
2023/05/23 00:25:32;;;;;;;10.18;7.88;;;;;;;;;;4986118;28;20579;-77
2023/05/23 00:27:59;;;;;;;10.82;8.30;;;;;;;;;;4985440;28;20090;-76
2023/05/23 00:30:25;;;;;;;10.23;7.50;;;;;;;;;;4990495;28;20031;-77
2023/05/23 00:32:53;;;;;;;12.27;7.85;;;;;;;;;;4989008;28;20121;-78
2023/05/23 00:35:19;;;;;;;10.70;7.57;;;;;;;;;;4991860;28;20082;-76
2023/05/23 00:37:44;;;;;;;13.98;8.90;;;;;;;;;;4989498;28;20045;-76
2023/05/23 00:40:10;;;;;;;14.88;9.82;;;;;;;;;;4995270;28;20034;-77
2023/05/23 00:42:36;;;;;;;12.65;8.93;;;;;;;;;;4987171;28;20096;-77
2023/05/23 00:45:01;;;;;;;14.45;8.18;;;;;;;;;;4977708;28;20092;-77
2023/05/23 00:47:26;;;;;;;11.10;7.97;;;;;;;;;;4975060;28;20050;-76
2023/05/23 00:49:52;;;;;;;18.83;9.23;;;;;;;;;;4982156;28;20553;-76
2023/05/23 00:52:17;;;;;;;10.77;8.05;;;;;;;;;;4983399;28;20038;-77
2023/05/23 00:54:42;;;;;;;17.05;8.60;;;;;;;;;;4990713;28;20118;-76
2023/05/23 00:57:08;;;;;;;17.73;9.90;;;;;;;;;;4985403;28;20385;-76
2023/05/23 00:59:35;;;;;;;13.13;9.38;;;;;;;;;;4986951;28;20453;-76
2023/05/23 01:02:01;;;;;;;13.57;9.23;;;;;;;;;;4993175;28;20493;-77
2023/05/23 01:04:27;;;;;;;14.85;9.50;;;;;;;;;;4982763;28;20105;-77
2023/05/23 01:06:54;;;;;;;14.80;9.63;;;;;;;;;;4986968;28;20046;-76
2023/05/23 01:09:20;;;;;;;14.57;9.50;;;;;;;;;;4986374;28;20069;-77
2023/05/23 01:11:57;;;;;;;21.17;9.80;;;;;;;;;;4979775;28;20022;-77
2023/05/23 01:14:31;;;;;;;12.43;9.70;;;;;;;;;;4982551;28;20564;-76
2023/05/23 01:17:23;;;;;;;12.13;9.68;;;;;;;;;;4978088;28;20031;-76
2023/05/23 01:19:54;;;;;;;15.00;8.88;;;;;;;;;;4986416;28;20094;-77
2023/05/23 01:22:38;;;;;;;12.27;9.30;;;;;;;;;;4982202;28;20041;-76
2023/05/23 01:25:16;;;;;;;11.55;8.57;;;;;;;;;;4983664;28;20054;-76
2023/05/23 01:27:55;;;;;;;13.00;9.93;;;;;;;;;;4993560;28;20058;-76
2023/05/23 01:30:22;;;;;;;13.10;9.65;;;;;;;;;;4993687;28;20061;-76
2023/05/23 01:32:50;;;;;;;13.50;10.07;;;;;;;;;;4977803;28;20031;-76
2023/05/23 01:35:20;;;;;;;15.32;9.68;;;;;;;;;;4987856;28;20031;-77
2023/05/23 01:37:45;;;;;;;17.95;10.23;;;;;;;;;;4985369;28;20040;-76
2023/05/23 01:40:10;;;;;;;13.43;8.90;;;;;;;;;;4996864;28;20698;-79
2023/05/23 01:42:36;;;;;;;16.10;9.32;;;;;;;;;;4993244;28;20097;-76
2023/05/23 01:45:01;;;;;;;15.75;10.20;;;;;;;;;;5009364;28;20034;-76
2023/05/23 01:47:27;;;;;;;12.63;9.93;;;;;;;;;;4985928;28;20039;-76
2023/05/23 01:49:54;;;;;;;13.80;9.88;;;;;;;;;;4972579;28;20046;-76
2023/05/23 01:52:20;;;;;;;13.63;9.40;;;;;;;;;;4990176;28;20154;-76
2023/05/23 01:54:48;;;;;;;17.35;10.23;;;;;;;;;;4993572;28;20038;-76
2023/05/23 01:57:13;;;;;;;16.95;10.35;;;;;;;;;;5005419;28;20399;-76
2023/05/23 01:59:39;;;;;;;16.75;10.77;;;;;;;;;;4986780;28;20025;-76
2023/05/23 02:02:04;;;;;;;15.60;11.55;;;;;;;;;;4977077;28;20038;-77
2023/05/23 02:04:30;;;;;;;15.10;10.80;;;;;;;;;;4980192;28;20035;-76
2023/05/23 02:06:55;;;;;;;18.05;11.88;;;;;;;;;;4973308;28;20043;-77
2023/05/23 02:09:21;;;;;;;23.83;11.43;;;;;;;;;;4992589;28;20376;-77
2023/05/23 02:11:46;;;;;;;16.60;10.95;;;;;;;;;;4993737;28;20027;-77
2023/05/23 02:14:11;;;;;;;14.93;11.38;;;;;;;;;;4981776;28;20043;-77
2023/05/23 02:16:37;;;;;;;16.65;11.38;;;;;;;;;;4987023;28;20061;-77
2023/05/23 02:19:03;;;;;;;14.70;10.65;;;;;;;;;;4983613;28;20061;-77
2023/05/23 02:21:28;;;;;;;17.95;11.45;;;;;;;;;;4971478;28;20046;-77
2023/05/23 02:23:53;;;;;;;17.40;10.95;;;;;;;;;;4981836;28;20057;-77
2023/05/23 02:26:19;;;;;;;14.52;9.90;;;;;;;;;;4992386;28;20366;-77
2023/05/23 02:28:44;;;;;;;15.43;10.50;;;;;;;;;;4990640;28;20095;-76
2023/05/23 02:31:10;;;;;;;15.88;10.82;;;;;;;;;;4993018;28;20126;-77
2023/05/23 02:33:35;;;;;;;14.43;10.60;;;;;;;;;;4979362;28;20443;-77
2023/05/23 02:36:01;;;;;;;16.67;11.05;;;;;;;;;;4980139;28;20053;-77
2023/05/23 02:38:26;;;;;;;17.77;10.55;;;;;;;;;;4972665;28;20537;-77
2023/05/23 02:40:52;;;;;;;16.65;10.38;;;;;;;;;;4987994;28;20097;-77
2023/05/23 02:43:18;;;;;;;15.70;10.50;;;;;;;;;;4992747;28;20502;-77
2023/05/23 02:45:43;;;;;;;13.82;10.23;;;;;;;;;;4993025;28;20444;-77
2023/05/23 02:48:10;;;;;;;12.52;9.85;;;;;;;;;;4984205;28;20104;-77
2023/05/23 02:50:36;;;;;;;19.90;10.63;;;;;;;;;;4993055;28;20018;-77
2023/05/23 02:53:01;;;;;;;14.10;10.55;;;;;;;;;;4991984;28;20053;-77
2023/05/23 02:55:27;;;;;;;14.52;10.20;;;;;;;;;;4987046;28;20496;-77
2023/05/23 02:57:53;;;;;;;18.15;11.55;;;;;;;;;;4991906;28;20035;-77
2023/05/23 03:00:18;;;;;;;15.65;11.00;;;;;;;;;;4990692;28;20022;-77
2023/05/23 03:02:44;;;;;;;17.40;10.38;;;;;;;;;;4978805;28;20113;-77
2023/05/23 03:05:09;;;;;;;18.98;11.32;;;;;;;;;;4990636;28;20046;-77
2023/05/23 03:07:35;;;;;;;16.15;10.52;;;;;;;;;;4977541;28;20446;-77
2023/05/23 03:10:00;;;;;;;22.13;11.50;;;;;;;;;;4976107;28;20041;-77
2023/05/23 03:12:29;;;;;;;16.58;10.07;;;;;;;;;;4980676;28;20050;-77
2023/05/23 03:14:54;;;;;;;20.00;10.93;;;;;;;;;;4973441;28;20031;-77
2023/05/23 03:17:20;;;;;;;15.38;11.07;;;;;;;;;;4986347;28;20404;-77
2023/05/23 03:19:45;;;;;;;15.10;10.07;;;;;;;;;;4991772;28;20074;-77
2023/05/23 03:22:10;;;;;;;14.52;9.65;;;;;;;;;;4986352;28;20039;-77
2023/05/23 03:24:36;;;;;;;19.00;10.30;;;;;;;;;;5010604;28;20034;-77
2023/05/23 03:27:01;;;;;;;14.00;9.82;;;;;;;;;;4979737;28;20096;-77
2023/05/23 03:29:27;;;;;;;14.35;9.23;;;;;;;;;;4988030;28;20030;-77
2023/05/23 03:31:52;;;;;;;14.23;10.23;;;;;;;;;;4995369;28;20041;-77
2023/05/23 03:34:17;;;;;;;14.73;9.80;;;;;;;;;;4991834;28;20109;-76
2023/05/23 03:36:43;;;;;;;17.48;11.45;;;;;;;;;;4981012;28;20105;-77
2023/05/23 03:39:08;;;;;;;19.08;12.80;;;;;;;;;;4987336;28;20038;-77
2023/05/23 03:41:34;;;;;;;18.83;11.82;;;;;;;;;;4996195;28;20033;-77
2023/05/23 03:43:59;;;;;;;20.63;12.30;;;;;;;;;;4988133;28;20066;-77
2023/05/23 03:46:25;;;;;;;16.08;11.80;;;;;;;;;;4986330;28;20042;-77
2023/05/23 03:48:50;;;;;;;20.33;12.60;;;;;;;;;;4992260;28;20396;-76
2023/05/23 03:51:16;;;;;;;22.88;12.70;;;;;;;;;;4995740;28;20543;-77
2023/05/23 03:53:41;;;;;;;18.48;11.85;;;;;;;;;;4996028;28;20514;-77
2023/05/23 03:56:06;;;;;;;19.73;12.70;;;;;;;;;;4995006;28;20037;-77
2023/05/23 03:58:32;;;;;;;21.55;12.82;;;;;;;;;;4983874;28;20064;-77
2023/05/23 04:00:57;;;;;;;23.92;13.15;;;;;;;;;;4991773;28;20061;-77
2023/05/23 04:03:22;;;;;;;19.63;13.32;;;;;;;;;;4984229;28;20094;-77
2023/05/23 04:05:48;;;;;;;23.25;13.35;;;;;;;;;;4976422;28;20035;-77
2023/05/23 04:08:14;;;;;;;19.77;12.70;;;;;;;;;;4991418;28;20118;-77
2023/05/23 04:10:39;;;;;;;19.40;12.82;;;;;;;;;;4995653;28;20030;-77
2023/05/23 04:13:05;;;;;;;18.63;12.27;;;;;;;;;;4995584;28;20044;-77
2023/05/23 04:15:33;;;;;;;21.00;12.40;;;;;;;;;;4995482;28;20034;-77
2023/05/23 04:17:58;;;;;;;19.38;12.45;;;;;;;;;;4995068;28;20084;-76
2023/05/23 04:20:23;;;;;;;15.95;11.48;;;;;;;;;;4991526;28;20620;-76
2023/05/23 04:22:49;;;;;;;20.17;11.60;;;;;;;;;;4990458;28;20378;-76
2023/05/23 04:25:17;;;;;;;18.13;11.30;;;;;;;;;;4992794;28;20405;-76
2023/05/23 04:27:42;;;;;;;17.23;11.52;;;;;;;;;;4982399;28;20034;-76
2023/05/23 04:30:08;;;;;;;16.17;11.63;;;;;;;;;;4990220;28;20020;-76
2023/05/23 04:32:34;;;;;;;20.25;11.65;;;;;;;;;;4983585;28;20469;-76
2023/05/23 04:35:00;;;;;;;18.75;11.98;;;;;;;;;;4978587;28;20041;-76
2023/05/23 04:37:26;;;;;;;21.13;11.55;;;;;;;;;;4973375;28;20494;-76
2023/05/23 04:39:51;;;;;;;19.25;12.90;;;;;;;;;;4974611;28;20085;-76
2023/05/23 04:42:17;;;;;;;20.77;12.40;;;;;;;;;;4990796;28;20026;-76
2023/05/23 04:44:42;;;;;;;18.42;11.80;;;;;;;;;;4983609;28;20393;-76
2023/05/23 04:47:08;;;;;;;20.48;12.65;;;;;;;;;;4981898;28;20042;-76
2023/05/23 04:49:35;;;;;;;14.55;11.57;;;;;;;;;;4982296;28;20037;-76
2023/05/23 04:52:00;;;;;;;23.83;12.88;;;;;;;;;;4982623;28;20061;-77
2023/05/23 04:54:26;;;;;;;17.73;11.32;;;;;;;;;;4983308;28;20034;-76
2023/05/23 04:56:51;;;;;;;21.02;12.43;;;;;;;;;;4989727;28;20095;-76
2023/05/23 04:59:16;;;;;;;18.15;11.77;;;;;;;;;;4994406;28;20026;-76
2023/05/23 05:01:42;;;;;;;28.20;13.80;;;;;;;;;;4981374;28;20049;-77
2023/05/23 05:04:07;;;;;;;20.15;12.25;;;;;;;;;;4974465;28;20033;-76
2023/05/23 05:06:32;;;;;;;20.05;12.43;;;;;;;;;;4987379;28;20034;-77
2023/05/23 05:08:58;;;;;;;22.45;12.80;;;;;;;;;;4992841;28;20061;-77
2023/05/23 05:11:23;;;;;;;19.80;12.65;;;;;;;;;;4990575;28;20026;-76
2023/05/23 05:13:48;;;;;;;21.45;12.40;;;;;;;;;;4997647;28;20034;-76
2023/05/23 05:16:14;;;;;;;16.85;11.52;;;;;;;;;;4993831;28;20109;-76
2023/05/23 05:18:39;;;;;;;21.00;12.15;;;;;;;;;;4991661;28;20089;-76
2023/05/23 05:21:05;;;;;;;23.15;11.95;;;;;;;;;;4996874;28;20026;-76
2023/05/23 05:23:30;;;;;;;18.92;12.45;;;;;;;;;;4994019;28;20022;-77
2023/05/23 05:25:56;;;;;;;19.63;11.70;;;;;;;;;;4994363;28;20141;-77
2023/05/23 05:28:21;;;;;;;21.00;12.95;;;;;;;;;;4993844;28;20094;-76
2023/05/23 05:30:47;;;;;;;21.50;12.93;;;;;;;;;;4992453;28;20034;-77
2023/05/23 05:33:13;;;;;;;18.60;12.88;;;;;;;;;;4993323;28;20026;-76
2023/05/23 05:35:38;;;;;;;17.65;12.73;;;;;;;;;;4991312;28;20103;-76
2023/05/23 05:38:04;;;;;;;22.95;14.55;;;;;;;;;;4993418;28;20100;-76
2023/05/23 05:40:32;;;;;;;22.50;13.35;;;;;;;;;;4989120;28;20422;-76
2023/05/23 05:42:57;;;;;;;25.15;13.55;;;;;;;;;;4989350;28;20031;-76
2023/05/23 05:45:22;;;;;;;22.42;12.45;;;;;;;;;;4992221;28;20524;-76
2023/05/23 05:47:48;;;;;;;24.45;12.80;;;;;;;;;;4988398;28;20018;-77
2023/05/23 05:50:13;;;;;;;20.95;13.13;;;;;;;;;;4990974;28;20477;-77
2023/05/23 05:52:41;;;;;;;21.58;12.73;;;;;;;;;;4992935;28;20034;-77
2023/05/23 05:55:10;;;;;;;20.75;12.75;;;;;;;;;;4991774;28;20035;-77
2023/05/23 05:57:39;;;;;;;19.48;12.90;;;;;;;;;;4988576;28;20117;-76
2023/05/23 06:00:14;;;;;;;21.17;12.43;;;;;;;;;;4989431;28;20130;-76
2023/05/23 06:02:41;;;;;;;26.38;13.85;;;;;;;;;;4982469;28;20046;-76
2023/05/23 06:05:11;;;;;;;18.75;12.95;;;;;;;;;;4987784;28;20046;-76
2023/05/23 06:07:36;;;;;;;19.40;12.60;;;;;;;;;;4979457;28;20030;-76
2023/05/23 06:10:02;;;;;;;18.58;12.00;;;;;;;;;;4985594;28;20113;-76
2023/05/23 06:12:27;;;;;;;18.60;12.02;;;;;;;;;;4986323;28;20061;-77
2023/05/23 06:14:53;;;;;;;15.20;11.30;;;;;;;;;;4987396;28;20097;-77
2023/05/23 06:17:18;;;;;;;15.98;11.50;;;;;;;;;;4985525;28;20030;-76
2023/05/23 06:19:43;;;;;;;14.45;12.00;;;;;;;;;;4987949;28;20044;-76
2023/05/23 06:22:08;;;;;;;16.55;11.43;;;;;;;;;;4985426;28;20101;-77
2023/05/23 06:24:34;;;;;;;17.90;10.95;;;;;;;;;;4987332;28;20030;-76
2023/05/23 06:26:59;;;;;;;18.15;11.52;;;;;;;;;;4987580;28;20018;-77
2023/05/23 06:29:24;;;;;;;20.02;11.32;;;;;;;;;;4984378;28;20050;-77
2023/05/23 06:31:50;;;;;;;17.13;11.30;;;;;;;;;;4988031;28;20117;-77
2023/05/23 06:34:15;;;;;;;19.60;11.80;;;;;;;;;;4987969;28;20030;-76
2023/05/23 06:36:41;;;;;;;16.35;11.68;;;;;;;;;;4988092;28;20038;-76
2023/05/23 06:39:08;;;;;;;18.75;11.48;;;;;;;;;;4987835;28;20081;-77
2023/05/23 06:41:34;;;;;;;14.70;10.73;;;;;;;;;;4986557;28;20029;-77
2023/05/23 06:43:59;;;;;;;17.08;11.82;;;;;;;;;;4989226;28;20038;-77
2023/05/23 06:46:24;;;;;;;32.67;12.32;;;;;;;;;;4987093;28;20604;-77
2023/05/23 06:48:50;;;;;;;17.88;12.20;;;;;;;;;;4989020;28;20078;-77
2023/05/23 06:51:15;;;;;;;16.88;12.07;;;;;;;;;;4987671;28;20026;-76
2023/05/23 06:53:40;;;;;;;20.48;12.35;;;;;;;;;;4988921;28;20438;-77
2023/05/23 06:56:06;;;;;;;21.98;13.55;;;;;;;;;;4988432;28;20035;-77
2023/05/23 06:58:31;;;;;;;20.60;12.57;;;;;;;;;;4987997;28;20140;-77
2023/05/23 07:00:56;;;;;;;28.48;14.48;;;;;;;;;;4989926;28;20117;-77
2023/05/23 07:03:22;;;;;;;26.83;14.40;;;;;;;;;;4982034;28;20657;-77
2023/05/23 07:05:47;;;;;;;21.00;13.45;;;;;;;;;;4982962;28;20403;-76
2023/05/23 07:08:12;;;;;;;20.98;13.70;;;;;;;;;;4981744;28;20038;-77
2023/05/23 07:10:40;;;;;;;22.85;15.15;;;;;;;;;;4984117;28;20035;-77
2023/05/23 07:13:05;;;;;;;21.95;14.88;;;;;;;;;;4987167;28;20070;-77
2023/05/23 07:15:30;;;;;;;23.85;15.18;;;;;;;;;;4980435;28;20120;-77
2023/05/23 07:17:56;;;;;;;25.98;14.85;;;;;;;;;;4978788;28;20022;-77
2023/05/23 07:20:21;;;;;;;22.52;15.50;;;;;;;;;;4987152;28;20038;-77
2023/05/23 07:22:47;;;;;;;26.65;16.10;;;;;;;;;;4988036;28;20042;-77
2023/05/23 07:25:12;;;;;;;26.42;16.27;;;;;;;;;;4987342;28;20433;-77
2023/05/23 07:27:37;;;;;;;27.98;15.98;;;;;;;;;;4983367;28;20505;-76
2023/05/23 07:30:03;;;;;;;30.85;17.25;;;;;;;;;;4987245;28;20404;-77
2023/05/23 07:32:29;;;;;;;28.98;16.80;;;;;;;;;;4987197;28;20022;-77
2023/05/23 07:34:54;;;;;;;25.70;15.90;;;;;;;;;;4986189;28;20042;-76
2023/05/23 07:37:20;;;;;;;26.02;17.00;;;;;;;;;;4983465;28;20062;-76
2023/05/23 07:39:45;;;;;;;29.00;16.92;;;;;;;;;;5002211;28;20500;-77
2023/05/23 07:42:10;;;;;;;26.45;17.63;;;;;;;;;;4986458;28;20113;-77
2023/05/23 07:44:36;;;;;;;44.33;18.20;;;;;;;;;;4985786;28;20033;-77
2023/05/23 07:47:03;;;;;;;36.58;18.88;;;;;;;;;;4984191;28;20034;-77
2023/05/23 07:49:29;;;;;;;30.67;18.63;;;;;;;;;;4985173;28;20047;-76
2023/05/23 07:51:54;;;;;;;56.42;20.65;;;;;;;;;;4988002;28;20130;-77
2023/05/23 07:54:19;;;;;;;32.30;19.88;;;;;;;;;;4984640;28;20030;-77
2023/05/23 07:56:45;;;;;;;34.78;20.50;;;;;;;;;;4983321;28;20030;-77
2023/05/23 07:59:10;;;;;;;33.67;21.20;;;;;;;;;;4985796;28;20505;-77
2023/05/23 08:01:36;;;;;;;50.50;20.48;;;;;;;;;;4984356;28;20042;-77
2023/05/23 08:04:02;;;;;;;42.20;20.50;;;;;;;;;;4989088;28;20081;-77
2023/05/23 08:06:27;;;;;;;46.70;20.55;;;;;;;;;;4987916;28;20462;-77
2023/05/23 08:08:53;;;;;;;40.70;22.40;;;;;;;;;;4993354;28;20042;-77
2023/05/23 08:11:18;;;;;;;40.58;23.05;;;;;;;;;;4990953;28;20378;-77
2023/05/23 08:13:43;;;;;;;48.20;23.38;;;;;;;;;;4986347;28;20034;-76
2023/05/23 08:16:09;;;;;;;46.25;23.40;;;;;;;;;;4990743;28;20034;-77
2023/05/23 08:18:35;;;;;;;41.03;23.50;;;;;;;;;;4984685;28;20034;-77
2023/05/23 08:21:01;;;;;;;45.90;22.52;;;;;;;;;;4992099;28;20054;-77
2023/05/23 08:23:27;;;;;;;41.53;23.40;;;;;;;;;;4991529;28;20444;-77
2023/05/23 08:25:53;;;;;;;43.90;23.35;;;;;;;;;;4989376;28;20042;-77
2023/05/23 08:28:18;;;;;;;39.17;23.17;;;;;;;;;;4987514;28;20038;-77
2023/05/23 08:30:44;;;;;;;42.17;23.45;;;;;;;;;;4985751;28;20096;-77
2023/05/23 08:33:09;;;;;;;38.20;22.63;;;;;;;;;;4983129;28;20520;-77
2023/05/23 08:35:35;;;;;;;36.35;22.75;;;;;;;;;;4988995;28;20097;-77
2023/05/23 08:38:02;;;;;;;38.53;22.83;;;;;;;;;;4992022;28;20046;-77
2023/05/23 08:40:30;;;;;;;35.85;21.85;;;;;;;;;;4989184;28;20043;-77
2023/05/23 08:42:55;;;;;;;37.78;20.80;;;;;;;;;;4992245;28;20076;-77
2023/05/23 08:45:20;;;;;;;31.90;20.35;;;;;;;;;;4992486;28;20058;-77
2023/05/23 08:47:46;;;;;;;36.08;21.70;;;;;;;;;;4988315;28;20385;-77
2023/05/23 08:50:14;;;;;;;39.10;22.08;;;;;;;;;;4991071;28;20034;-77
2023/05/23 08:52:46;;;;;;;34.67;20.98;;;;;;;;;;4989107;28;20512;-77
2023/05/23 08:55:12;;;;;;;37.22;21.02;;;;;;;;;;4986887;28;20454;-77
2023/05/23 08:57:42;;;;;;;36.60;23.30;;;;;;;;;;4985781;28;20059;-77
2023/05/23 09:00:13;;;;;;;36.78;21.92;;;;;;;;;;4986147;28;20031;-77
2023/05/23 09:02:39;;;;;;;43.85;23.60;;;;;;;;;;4989701;28;20502;-77
2023/05/23 09:05:04;;;;;;;35.17;22.95;;;;;;;;;;4988138;28;20117;-77
2023/05/23 09:07:30;;;;;;;43.25;24.05;;;;;;;;;;4993103;28;20061;-77
2023/05/23 09:09:55;;;;;;;42.08;24.45;;;;;;;;;;4989280;28;20045;-77
2023/05/23 09:12:23;;;;;;;38.50;22.95;;;;;;;;;;4988788;28;20037;-77
2023/05/23 09:14:49;;;;;;;40.47;23.48;;;;;;;;;;5008802;28;20022;-77
2023/05/23 09:17:17;;;;;;;35.25;21.27;;;;;;;;;;4988300;28;20041;-77
2023/05/23 09:19:42;;;;;;;35.58;20.80;;;;;;;;;;4988380;28;20038;-77
2023/05/23 09:22:07;;;;;;;40.55;19.98;;;;;;;;;;4987919;28;20042;-77
2023/05/23 09:24:38;;;;;;;39.75;21.35;;;;;;;;;;4993194;28;20041;-77
2023/05/23 09:27:07;;;;;;;34.40;21.05;;;;;;;;;;4993335;28;20033;-76
2023/05/23 09:29:36;;;;;;;32.85;20.50;;;;;;;;;;4993594;28;20041;-76
2023/05/23 09:32:13;;;;;;;36.70;20.75;;;;;;;;;;4993821;28;20129;-77
2023/05/23 09:34:58;;;;;;;36.72;19.90;;;;;;;;;;4985902;28;20509;-76
2023/05/23 09:37:38;;;;;;;33.50;19.65;;;;;;;;;;4985695;28;20104;-77
2023/05/23 09:40:09;;;;;;;32.33;20.30;;;;;;;;;;4993665;28;20034;-77
2023/05/23 09:42:40;;;;;;;31.75;19.60;;;;;;;;;;4992379;28;20030;-77
2023/05/23 09:45:06;;;;;;;32.42;18.95;;;;;;;;;;4985652;28;20485;-77
2023/05/23 09:47:31;;;;;;;31.95;20.08;;;;;;;;;;4981011;28;20057;-77
2023/05/23 09:49:56;;;;;;;31.80;18.80;;;;;;;;;;4994935;28;20061;-77
2023/05/23 09:52:21;;;;;;;36.95;18.52;;;;;;;;;;4993861;28;20169;-77
2023/05/23 09:54:47;;;;;;;30.67;17.45;;;;;;;;;;4992744;28;20038;-77
2023/05/23 09:57:14;;;;;;;40.92;19.40;;;;;;;;;;4993089;28;20396;-77
2023/05/23 09:59:40;;;;;;;33.80;19.15;;;;;;;;;;4993133;28;20030;-77
2023/05/23 10:02:10;;;;;;;29.48;18.88;;;;;;;;;;4993336;28;20497;-78
2023/05/23 10:04:36;;;;;;;30.58;18.83;;;;;;;;;;4993084;28;20030;-77
2023/05/23 10:07:09;;;;;;;30.83;19.98;;;;;;;;;;4987689;28;20043;-77
2023/05/23 10:09:37;;;;;;;37.65;20.40;;;;;;;;;;4991284;28;20096;-77
2023/05/23 10:12:35;;;;;;;39.28;21.52;;;;;;;;;;4993497;28;20018;-77
2023/05/23 10:15:03;;;;;;;29.10;18.52;;;;;;;;;;4993588;28;20049;-78
2023/05/23 10:17:38;;;;;;;38.10;18.60;;;;;;;;;;4985617;28;20046;-77
2023/05/23 10:20:07;;;;;;;30.40;18.30;;;;;;;;;;4991640;28;20034;-77
2023/05/23 10:22:36;;;;;;;40.47;18.55;;;;;;;;;;4992911;28;20112;-77
2023/05/23 10:25:04;;;;;;;31.33;19.27;;;;;;;;;;4985073;28;20046;-78
2023/05/23 10:27:30;;;;;;;36.08;19.67;;;;;;;;;;4984781;28;20042;-77
2023/05/23 10:29:56;;;;;;;38.38;21.10;;;;;;;;;;4993459;28;20374;-77
2023/05/23 10:32:22;;;;;;;47.17;22.50;;;;;;;;;;4993207;28;20513;-75
2023/05/23 10:35:03;;;;;;;46.88;23.77;;;;;;;;;;4991205;28;20500;-77
2023/05/23 10:37:32;;;;;;;33.78;21.55;;;;;;;;;;4989355;28;20042;-77
2023/05/23 10:40:22;;;;;;;46.17;25.13;;;;;;;;;;4983960;28;20058;-77
2023/05/23 10:42:56;;;;;;;50.38;23.50;;;;;;;;;;4984428;28;20034;-76
2023/05/23 10:45:23;;;;;;;;;;;;;;;;;;4993003;28;20022;-77
2023/05/23 10:47:51;;;;;;;34.97;21.58;;;;;;;;;;5001159;28;19913;-77
2023/05/23 10:50:35;;;;;;;37.88;21.35;;;;;;;;;;4988515;28;20031;-77
2023/05/23 10:53:03;;;;;;;44.17;24.75;;;;;;;;;;4978036;28;20030;-77
2023/05/23 10:55:33;;;;;;;38.60;20.48;;;;;;;;;;5001695;28;20035;-76
2023/05/23 10:58:16;;;;;;;42.03;24.95;;;;;;;;;;4992093;28;20576;-77
2023/05/23 11:00:54;;;;;;;40.70;24.45;;;;;;;;;;4990089;28;20034;-77
2023/05/23 11:03:44;;;;;;;41.80;24.52;;;;;;;;;;4972823;28;20027;-77
2023/05/23 11:06:28;;;;;;;49.83;25.30;;;;;;;;;;4984425;28;20022;-77
2023/05/23 11:09:02;;;;;;;73.40;24.38;;;;;;;;;;4976576;28;20023;-76
2023/05/23 11:11:47;;;;;;;39.35;23.02;;;;;;;;;;4991582;28;20118;-77
2023/05/23 11:14:13;;;;;;;33.90;20.27;;;;;;;;;;4992113;28;20034;-76
2023/05/23 11:16:40;;;;;;;43.65;21.95;;;;;;;;;;4985175;28;20045;-76
2023/05/23 11:19:17;;;;;;;33.95;20.10;;;;;;;;;;4985212;28;20034;-76
2023/05/23 11:21:44;;;;;;;33.45;19.27;;;;;;;;;;4972423;28;20051;-77
2023/05/23 11:24:09;;;;;;;39.40;19.45;;;;;;;;;;4972709;28;20039;-77
2023/05/23 11:26:35;;;;;;;41.08;21.08;;;;;;;;;;4990400;28;20121;-77
2023/05/23 11:29:02;;;;;;;37.45;21.13;;;;;;;;;;4998047;28;20034;-77
2023/05/23 11:31:28;;;;;;;36.95;21.42;;;;;;;;;;4971719;28;20038;-77
2023/05/23 11:33:54;;;;;;;39.78;23.05;;;;;;;;;;4981267;28;20118;-76
2023/05/23 11:36:22;;;;;;;39.22;22.33;;;;;;;;;;4980596;28;20031;-76
2023/05/23 11:38:52;;;;;;;37.03;22.08;;;;;;;;;;4973501;28;20406;-76
2023/05/23 11:41:17;;;;;;;35.88;20.17;;;;;;;;;;4987321;28;20430;-76
2023/05/23 11:43:52;;;;;;;44.00;23.38;;;;;;;;;;5002156;28;20129;-77
2023/05/23 11:46:18;;;;;;;39.30;22.65;;;;;;;;;;5000281;28;20030;-77
2023/05/23 11:48:44;;;;;;;45.00;21.27;;;;;;;;;;4989200;28;20571;-77
2023/05/23 11:51:10;;;;;;;40.20;21.67;;;;;;;;;;4995467;28;20018;-76
2023/05/23 11:53:35;;;;;;;36.45;20.98;;;;;;;;;;4995672;28;20164;-77
2023/05/23 11:56:02;;;;;;;34.70;20.60;;;;;;;;;;5001074;28;20426;-76
2023/05/23 11:58:34;;;;;;;37.40;20.73;;;;;;;;;;4999229;28;20030;-76
2023/05/23 12:01:03;;;;;;;40.30;23.02;;;;;;;;;;4999708;28;20501;-76
2023/05/23 12:03:29;;;;;;;39.67;24.33;;;;;;;;;;4996351;28;20034;-77
2023/05/23 12:05:54;;;;;;;45.30;24.60;;;;;;;;;;4996002;28;20030;-77
2023/05/23 12:08:20;;;;;;;36.90;20.33;;;;;;;;;;4997041;28;20043;-74
2023/05/23 12:10:55;;;;;;;35.78;19.75;;;;;;;;;;5001740;28;20061;-75
2023/05/23 12:13:24;;;;;;;31.73;20.35;;;;;;;;;;4987638;28;20038;-75
2023/05/23 12:15:52;;;;;;;32.00;18.17;;;;;;;;;;4993495;28;20034;-75
2023/05/23 12:18:19;;;;;;;31.67;20.88;;;;;;;;;;4987131;28;20037;-75
2023/05/23 12:20:44;;;;;;;34.92;19.00;;;;;;;;;;4990790;28;20708;-75
2023/05/23 12:23:18;;;;;;;35.83;20.13;;;;;;;;;;4993429;28;20061;-75
2023/05/23 12:25:43;;;;;;;30.73;18.77;;;;;;;;;;4993625;28;20505;-75
2023/05/23 12:28:12;;;;;;;33.40;19.35;;;;;;;;;;4981430;28;20089;-75
2023/05/23 12:30:41;;;;;;;38.42;20.60;;;;;;;;;;4992617;28;20089;-75
2023/05/23 12:33:08;;;;;;;34.55;21.90;;;;;;;;;;4985325;28;20030;-75
2023/05/23 12:35:33;;;;;;;35.13;21.42;;;;;;;;;;4986514;28;20089;-75
2023/05/23 12:37:59;;;;;;;36.00;21.00;;;;;;;;;;4993809;28;20444;-75
2023/05/23 12:40:25;;;;;;;36.65;21.25;;;;;;;;;;4978592;28;20490;-75
2023/05/23 12:42:55;;;;;;;36.67;22.02;;;;;;;;;;4982867;28;20058;-75
2023/05/23 12:45:30;;;;;;;36.08;21.40;;;;;;;;;;4980717;28;20030;-75
2023/05/23 12:47:55;;;;;;;34.95;22.23;;;;;;;;;;4986252;28;20122;-75
2023/05/23 12:50:21;;;;;;;33.75;20.85;;;;;;;;;;4993472;28;20283;-75
2023/05/23 12:52:46;;;;;;;35.97;22.17;;;;;;;;;;4985039;28;20645;-76
2023/05/23 12:55:12;;;;;;;35.20;22.77;;;;;;;;;;4979670;28;20035;-75
2023/05/23 12:57:37;;;;;;;39.25;24.10;;;;;;;;;;4982240;28;20034;-75
2023/05/23 13:00:03;;;;;;;33.33;21.02;;;;;;;;;;4986230;28;20384;-75
2023/05/23 13:02:28;;;;;;;31.65;20.65;;;;;;;;;;4978965;28;20063;-75
2023/05/23 13:04:54;;;;;;;30.13;20.05;;;;;;;;;;4988993;28;20575;-76
2023/05/23 13:07:19;;;;;;;30.85;19.75;;;;;;;;;;4980083;28;20181;-75
2023/05/23 13:09:44;;;;;;;38.75;20.55;;;;;;;;;;4983806;28;20038;-75
2023/05/23 13:12:11;;;;;;;35.42;21.33;;;;;;;;;;4984095;28;20021;-76
2023/05/23 13:14:36;;;;;;;35.20;20.40;;;;;;;;;;4982477;28;20034;-75
2023/05/23 13:17:02;;;;;;;32.00;19.95;;;;;;;;;;4973979;28;20172;-76
2023/05/23 13:19:27;;;;;;;34.65;20.50;;;;;;;;;;4988586;28;20042;-75
2023/05/23 13:21:52;;;;;;;35.65;20.73;;;;;;;;;;4993075;28;20042;-75
2023/05/23 13:24:18;;;;;;;32.00;19.98;;;;;;;;;;4993348;28;20370;-75
2023/05/23 13:26:43;;;;;;;33.67;19.88;;;;;;;;;;4985183;28;20031;-76
2023/05/23 13:29:08;;;;;;;34.38;20.33;;;;;;;;;;4988552;28;20129;-76
2023/05/23 13:31:34;;;;;;;28.70;19.20;;;;;;;;;;4979854;28;20031;-76
2023/05/23 13:33:59;;;;;;;34.78;19.60;;;;;;;;;;4985130;28;20041;-75
2023/05/23 13:36:25;;;;;;;31.15;19.52;;;;;;;;;;4992923;28;20070;-76
2023/05/23 13:38:50;;;;;;;24.92;15.10;;;;;;;;;;4993280;28;20034;-75
2023/05/23 13:41:16;;;;;;;29.58;15.82;;;;;;;;;;4993305;28;20102;-75
2023/05/23 13:43:41;;;;;;;27.13;15.10;;;;;;;;;;4984735;28;20421;-75
2023/05/23 13:46:06;;;;;;;23.20;15.85;;;;;;;;;;4992400;28;20026;-75
2023/05/23 13:48:32;;;;;;;30.50;16.33;;;;;;;;;;4992550;28;20034;-75
2023/05/23 13:50:57;;;;;;;24.52;15.85;;;;;;;;;;4977092;28;20026;-76
2023/05/23 13:53:22;;;;;;;19.40;14.40;;;;;;;;;;4984690;28;20547;-75
2023/05/23 13:55:48;;;;;;;26.77;15.90;;;;;;;;;;4974984;28;20118;-76
2023/05/23 13:58:14;;;;;;;21.13;15.13;;;;;;;;;;4982492;28;20113;-76
2023/05/23 14:00:39;;;;;;;20.13;14.48;;;;;;;;;;4981416;28;20038;-76
2023/05/23 14:03:06;;;;;;;20.50;14.07;;;;;;;;;;4980413;28;20452;-75
2023/05/23 14:05:31;;;;;;;20.70;13.50;;;;;;;;;;4982393;28;20023;-76
2023/05/23 14:07:56;;;;;;;20.58;14.38;;;;;;;;;;4976000;28;20039;-76
2023/05/23 14:10:22;;;;;;;19.08;13.65;;;;;;;;;;4981460;28;20058;-76
2023/05/23 14:12:48;;;;;;;23.38;14.80;;;;;;;;;;4983852;28;20033;-75
2023/05/23 14:15:14;;;;;;;22.85;14.65;;;;;;;;;;4992432;28;20492;-75
2023/05/23 14:17:40;;;;;;;21.50;14.07;;;;;;;;;;4982537;28;20054;-75